Time;durP1;ratioP1;P1;durP2;ratioP2;P2;SDS_P1;SDS_P2;PMS_P1;PMS_P2;Temp;Humidity;BMP_temperature;BMP_pressure;BME280_temperature;BME280_humidity;BME280_pressure;Samples;Min_cycle;Max_cycle;Signal;HPM_P1;HPM_P2
2021/12/04 00:02:22;;;;;;;2.40;1.90;;;-2.30;99.90;;;;;;5029980;28;20553;-50
2021/12/04 00:04:52;;;;;;;2.40;1.70;;;-2.10;99.90;;;;;;5030049;28;20877;-51
2021/12/04 00:07:21;;;;;;;7.80;3.47;;;-1.80;99.90;;;;;;5029391;28;20443;-51
2021/12/04 00:09:50;;;;;;;7.83;5.60;;;-1.60;99.90;;;;;;5029672;28;20590;-50
2021/12/04 00:12:18;;;;;;;6.50;4.63;;;-1.50;99.90;;;;;;5032947;28;20451;-50
2021/12/04 00:14:45;;;;;;;9.57;5.20;;;-1.40;99.90;;;;;;5030539;28;20542;-50
2021/12/04 00:17:13;;;;;;;9.80;5.40;;;-1.30;99.90;;;;;;5032454;28;20511;-51
2021/12/04 00:19:40;;;;;;;5.30;4.20;;;-1.30;99.90;;;;;;5029634;28;20466;-51
2021/12/04 00:22:09;;;;;;;4.77;4.10;;;-2.80;99.90;;;;;;5030925;28;20936;-50
2021/12/04 00:24:36;;;;;;;6.27;3.33;;;-3.20;99.90;;;;;;5031490;28;20878;-50
2021/12/04 00:27:04;;;;;;;3.30;2.30;;;-2.90;99.90;;;;;;5031578;28;20974;-53
2021/12/04 00:29:31;;;;;;;2.10;2.00;;;-2.60;99.90;;;;;;5029699;28;20970;-51
2021/12/04 00:32:01;;;;;;;1.90;1.07;;;-2.30;99.90;;;;;;5031345;28;20849;-50
2021/12/04 00:34:30;;;;;;;0.80;0.80;;;-2.00;99.90;;;;;;5033170;28;20451;-50
2021/12/04 00:37:10;;;;;;;1.10;1.00;;;-1.80;99.90;;;;;;5035422;28;21015;-52
2021/12/04 00:50:36;;;;;;;3.10;2.80;;;-1.40;99.90;;;;;;5054754;28;20439;-53
2021/12/04 00:53:03;;;;;;;2.73;2.53;;;-1.40;99.90;;;;;;5052685;28;20971;-54
2021/12/04 00:55:32;;;;;;;2.40;2.20;;;-1.30;99.90;;;;;;5037480;28;20510;-53
2021/12/04 00:57:58;;;;;;;6.13;3.20;;;-1.20;99.90;;;;;;5033991;28;20446;-53
2021/12/04 01:00:25;;;;;;;3.80;2.80;;;-1.20;99.90;;;;;;5036979;28;20442;-54
2021/12/04 01:02:53;;;;;;;4.43;2.00;;;-1.90;99.90;;;;;;5031625;28;20474;-54
2021/12/04 01:05:20;;;;;;;2.87;1.83;;;-2.20;99.90;;;;;;5033090;28;21025;-53
2021/12/04 01:07:47;;;;;;;2.23;1.90;;;-2.20;99.90;;;;;;5038837;28;20477;-54
2021/12/04 01:10:14;;;;;;;1.70;1.60;;;-1.90;99.90;;;;;;5032938;28;20443;-54
2021/12/04 01:12:43;;;;;;;1.20;1.10;;;-1.70;99.90;;;;;;5032677;28;20613;-54
2021/12/04 01:15:10;;;;;;;1.27;0.97;;;-2.00;99.90;;;;;;5032835;28;21000;-54
2021/12/04 01:17:37;;;;;;;5.23;1.57;;;-2.20;99.90;;;;;;5028832;28;21070;-52
2021/12/04 01:20:05;;;;;;;1.10;1.00;;;-1.90;99.90;;;;;;5032308;28;20495;-53
2021/12/04 01:22:33;;;;;;;0.60;0.60;;;-1.70;99.90;;;;;;5032074;28;20515;-53
2021/12/04 01:25:00;;;;;;;2.43;1.70;;;-1.50;99.90;;;;;;5033156;28;20553;-53
2021/12/04 01:27:28;;;;;;;1.63;1.53;;;-1.40;99.90;;;;;;5033331;28;20478;-54
2021/12/04 01:29:56;;;;;;;3.03;1.73;;;-1.30;99.90;;;;;;5030312;28;20471;-53
2021/12/04 01:32:23;;;;;;;1.10;1.00;;;-1.20;99.90;;;;;;5034130;28;20468;-54
2021/12/04 01:34:50;;;;;;;1.97;1.07;;;-1.20;99.90;;;;;;5032534;28;20462;-53
2021/12/04 01:37:17;;;;;;;3.13;2.47;;;-1.10;99.90;;;;;;5032298;28;20481;-53
2021/12/04 01:39:44;;;;;;;2.37;1.67;;;-1.10;99.90;;;;;;5030838;28;20482;-53
2021/12/04 01:42:11;;;;;;;3.10;2.50;;;-1.80;99.90;;;;;;5032369;28;20451;-54
2021/12/04 01:44:38;;;;;;;3.70;1.70;;;-2.50;99.90;;;;;;5034186;28;20526;-54
2021/12/04 01:47:14;;;;;;;2.00;1.87;;;-2.30;99.90;;;;;;5030206;28;20450;-53
2021/12/04 01:49:41;;;;;;;1.87;1.77;;;-2.50;99.90;;;;;;5030221;28;20492;-54
2021/12/04 01:52:08;;;;;;;1.23;1.13;;;-2.50;99.90;;;;;;5032053;28;20892;-53
2021/12/04 01:54:35;;;;;;;1.17;1.03;;;-2.20;99.90;;;;;;5039191;28;20961;-54
2021/12/04 01:57:04;;;;;;;1.20;0.87;;;-1.90;99.90;;;;;;5028053;28;20558;-54
2021/12/04 01:59:31;;;;;;;2.50;0.77;;;-1.70;99.90;;;;;;5030982;28;20989;-54
2021/12/04 02:01:58;;;;;;;1.67;1.50;;;-1.50;99.90;;;;;;5040267;28;20454;-54
2021/12/04 02:04:27;;;;;;;1.20;1.10;;;-1.30;99.90;;;;;;5031895;28;20466;-55
2021/12/04 02:06:54;;;;;;;3.07;1.77;;;-1.20;99.90;;;;;;5026913;28;20505;-54
2021/12/04 02:09:23;;;;;;;3.20;1.93;;;-1.10;99.90;;;;;;5032663;28;20918;-54
2021/12/04 02:11:50;;;;;;;1.50;1.40;;;-1.00;99.90;;;;;;5031391;28;21083;-54
2021/12/04 02:14:17;;;;;;;2.30;1.30;;;-0.90;99.90;;;;;;5033820;28;20459;-54
2021/12/04 02:16:46;;;;;;;1.50;1.37;;;-0.90;99.90;;;;;;5031017;28;20508;-53
2021/12/04 02:19:15;;;;;;;1.20;1.10;;;-0.90;99.90;;;;;;5032358;28;20471;-53
2021/12/04 02:21:43;;;;;;;1.30;1.20;;;-0.90;99.90;;;;;;5032478;28;20497;-54
2021/12/04 02:24:10;;;;;;;0.70;0.70;;;-1.10;99.90;;;;;;5030937;28;20497;-52
2021/12/04 02:26:37;;;;;;;2.17;0.90;;;-1.40;99.90;;;;;;5030730;28;20448;-54
2021/12/04 02:29:04;;;;;;;2.80;1.47;;;-1.30;99.90;;;;;;5035774;28;20472;-53
2021/12/04 02:31:32;;;;;;;3.10;2.17;;;-1.10;99.90;;;;;;5036236;28;20500;-54
2021/12/04 02:33:59;;;;;;;2.30;1.67;;;-1.00;99.90;;;;;;5030067;28;20487;-53
2021/12/04 02:36:26;;;;;;;1.27;1.20;;;-1.00;99.90;;;;;;5030494;28;20523;-54
2021/12/04 02:38:55;;;;;;;1.53;1.33;;;-0.90;99.90;;;;;;5031737;28;20950;-53
2021/12/04 02:41:23;;;;;;;2.03;1.20;;;-1.00;99.90;;;;;;5030377;28;20451;-53
2021/12/04 02:43:51;;;;;;;4.13;2.23;;;-1.20;99.90;;;;;;5027853;28;20479;-54
2021/12/04 02:46:18;;;;;;;1.50;1.40;;;-1.10;99.90;;;;;;5030112;28;20795;-54
2021/12/04 02:48:47;;;;;;;2.00;1.87;;;-1.00;99.90;;;;;;5031180;28;20918;-53
2021/12/04 02:51:15;;;;;;;3.17;2.13;;;-1.50;99.90;;;;;;5032757;28;20792;-54
2021/12/04 02:53:42;;;;;;;2.20;1.87;;;-2.30;99.90;;;;;;5029229;28;20503;-52
2021/12/04 02:56:11;;;;;;;2.23;2.03;;;-2.70;99.90;;;;;;5031984;28;20522;-53
2021/12/04 02:58:44;;;;;;;1.63;1.53;;;-2.60;99.90;;;;;;5036824;28;20450;-53
2021/12/04 03:01:11;;;;;;;1.40;1.30;;;-2.30;99.90;;;;;;5031566;28;20869;-53
2021/12/04 03:03:38;;;;;;;1.63;1.53;;;-2.20;99.90;;;;;;5030678;28;20508;-53
2021/12/04 03:06:05;;;;;;;2.10;1.43;;;-2.00;99.90;;;;;;5037693;28;20508;-53
2021/12/04 03:08:32;;;;;;;4.20;1.33;;;-1.70;99.90;;;;;;5031262;28;20983;-52
2021/12/04 03:10:59;;;;;;;3.00;1.00;;;-1.60;99.90;;;;;;5030905;28;20454;-53
2021/12/04 03:13:27;;;;;;;1.43;1.20;;;-1.80;99.90;;;;;;5029063;28;20442;-53
2021/12/04 03:15:58;;;;;;;2.80;1.67;;;-1.60;99.90;;;;;;5037752;28;20454;-53
2021/12/04 03:18:26;;;;;;;4.50;1.40;;;-1.40;99.90;;;;;;5027213;28;20488;-53
2021/12/04 03:20:55;;;;;;;1.30;1.20;;;-1.30;99.90;;;;;;5030534;28;20450;-53
2021/12/04 03:23:28;;;;;;;1.43;1.30;;;-1.20;99.90;;;;;;5032102;28;20453;-52
2021/12/04 03:25:58;;;;;;;1.70;1.57;;;-1.10;99.90;;;;;;5024160;28;20460;-53
2021/12/04 03:28:26;;;;;;;2.33;2.10;;;-1.10;99.90;;;;;;5033825;28;20472;-53
2021/12/04 03:30:59;;;;;;;3.10;2.63;;;-1.00;99.90;;;;;;5029719;28;20490;-53
2021/12/04 03:41:39;;;;;;;1.80;1.70;;;-2.20;99.90;;;;;;5022893;28;20462;-53
2021/12/04 03:44:06;;;;;;;2.63;1.50;;;-2.40;99.90;;;;;;5029842;28;20442;-53
2021/12/04 03:46:34;;;;;;;1.73;1.20;;;-2.40;99.90;;;;;;5031815;28;20435;-53
2021/12/04 03:49:01;;;;;;;1.77;1.30;;;-2.10;99.90;;;;;;5029657;28;20476;-52
2021/12/04 03:51:28;;;;;;;1.90;1.80;;;-1.80;99.90;;;;;;5023640;28;20455;-52
2021/12/04 03:53:55;;;;;;;28.00;12.50;;;-1.60;99.90;;;;;;5027693;28;20448;-52
2021/12/04 03:56:23;;;;;;;20.80;10.60;;;-1.50;99.90;;;;;;5034880;28;20446;-52
2021/12/04 03:58:51;;;;;;;8.50;4.53;;;-1.30;99.90;;;;;;5030470;28;20942;-52
2021/12/04 04:01:18;;;;;;;3.03;2.10;;;-1.20;99.90;;;;;;5026520;28;20928;-52
2021/12/04 04:03:46;;;;;;;4.87;2.20;;;-1.30;99.90;;;;;;5029497;28;20478;-53
2021/12/04 04:06:13;;;;;;;2.93;2.20;;;-1.20;99.90;;;;;;5032843;28;20554;-53
2021/12/04 04:08:41;;;;;;;3.20;2.27;;;-1.20;99.90;;;;;;5036186;28;20538;-53
2021/12/04 04:11:08;;;;;;;5.33;3.03;;;-1.30;99.90;;;;;;5034193;28;20453;-53
2021/12/04 04:13:40;;;;;;;3.73;3.00;;;-1.20;99.90;;;;;;5036396;28;20490;-52
2021/12/04 04:16:07;;;;;;;4.20;3.10;;;-1.10;99.90;;;;;;5036767;28;20470;-53
2021/12/04 04:18:34;;;;;;;5.53;3.40;;;-1.00;99.90;;;;;;5038816;28;20582;-53
2021/12/04 04:21:02;;;;;;;3.40;3.10;;;-1.00;99.90;;;;;;5033597;28;20856;-53
2021/12/04 04:23:29;;;;;;;3.90;3.37;;;-1.00;99.90;;;;;;5031287;28;20448;-52
2021/12/04 04:25:56;;;;;;;2.77;2.57;;;-1.10;99.90;;;;;;5035236;28;21036;-53
2021/12/04 04:28:24;;;;;;;3.63;3.33;;;-1.10;99.90;;;;;;5039127;28;20443;-53
2021/12/04 04:30:51;;;;;;;5.47;3.07;;;-1.20;99.90;;;;;;5033479;28;20445;-52
2021/12/04 04:33:18;;;;;;;4.43;4.03;;;-1.10;99.90;;;;;;5038124;28;20504;-53
2021/12/04 04:35:50;;;;;;;4.57;3.87;;;-1.00;99.90;;;;;;5034005;28;20463;-53
2021/12/04 04:38:29;;;;;;;5.23;4.60;;;-0.90;99.90;;;;;;5032529;28;20490;-53
2021/12/04 04:57:40;;;;;;;3.50;3.20;;;-0.70;99.90;;;;;;5035932;28;20523;-54
2021/12/04 05:00:29;;;;;;;4.87;2.93;;;-0.70;99.90;;;;;;5029636;28;20450;-54
2021/12/04 05:11:33;;;;;;;3.07;2.60;;;-0.70;99.90;;;;;;5025285;28;20468;-53
2021/12/04 05:14:02;;;;;;;2.47;2.00;;;-0.60;99.90;;;;;;5026486;28;20461;-54
2021/12/04 05:16:40;;;;;;;2.57;2.37;;;-0.60;99.90;;;;;;5034066;28;20449;-54
2021/12/04 05:19:24;;;;;;;1.77;1.57;;;-0.60;99.90;;;;;;5031471;28;20443;-54
2021/12/04 05:21:51;;;;;;;2.20;2.10;;;-0.50;99.90;;;;;;5031243;28;20438;-53
2021/12/04 05:24:18;;;;;;;3.50;2.60;;;-0.50;99.90;;;;;;5034378;28;20496;-54
2021/12/04 05:26:46;;;;;;;7.30;2.67;;;-0.50;99.90;;;;;;5033735;28;20441;-53
2021/12/04 05:29:13;;;;;;;5.73;2.77;;;-0.50;99.90;;;;;;5025245;28;20478;-53
2021/12/04 05:31:40;;;;;;;3.00;2.80;;;-0.40;99.90;;;;;;5023093;28;20507;-53
2021/12/04 05:34:07;;;;;;;2.53;2.30;;;-0.40;99.90;;;;;;5029872;28;20507;-54
2021/12/04 05:36:34;;;;;;;2.20;2.10;;;-0.40;99.90;;;;;;5034956;28;20476;-53
2021/12/04 05:39:01;;;;;;;3.20;2.77;;;-0.50;99.90;;;;;;5031281;28;20557;-53
2021/12/04 05:41:28;;;;;;;2.50;1.93;;;-0.40;99.90;;;;;;5029371;28;20447;-53
2021/12/04 05:43:59;;;;;;;2.50;1.97;;;-0.70;99.90;;;;;;5026260;28;20443;-53
2021/12/04 05:46:28;;;;;;;3.60;2.50;;;-0.90;99.90;;;;;;5033176;28;20449;-53
2021/12/04 05:49:00;;;;;;;2.30;2.10;;;-0.90;99.90;;;;;;5032465;28;20921;-53
2021/12/04 05:51:45;;;;;;;3.37;2.80;;;-0.80;99.90;;;;;;5033676;28;20894;-53
2021/12/04 05:54:31;;;;;;;3.23;2.17;;;-1.10;99.90;;;;;;5034034;28;20464;-52
2021/12/04 05:56:59;;;;;;;2.67;1.90;;;-1.10;99.90;;;;;;5033250;28;20437;-52
2021/12/04 05:59:27;;;;;;;2.67;2.33;;;-1.00;99.90;;;;;;5032548;28;20486;-53
2021/12/04 06:01:54;;;;;;;4.00;2.83;;;-0.80;99.90;;;;;;5032622;28;20507;-53
2021/12/04 06:04:22;;;;;;;3.73;3.30;;;-0.70;99.90;;;;;;5033528;28;20468;-53
2021/12/04 06:06:49;;;;;;;5.97;3.87;;;-0.60;99.90;;;;;;5031456;28;20896;-52
2021/12/04 06:09:16;;;;;;;3.13;2.87;;;-0.60;99.90;;;;;;5027935;28;20467;-53
2021/12/04 06:11:43;;;;;;;2.80;2.50;;;-0.50;99.90;;;;;;5030438;28;20546;-53
2021/12/04 06:14:10;;;;;;;4.37;2.73;;;-0.50;99.90;;;;;;5033960;28;20507;-53
2021/12/04 06:16:38;;;;;;;3.47;3.00;;;-0.40;99.90;;;;;;5032271;28;20468;-52
2021/12/04 06:19:11;;;;;;;3.13;2.87;;;-0.40;99.90;;;;;;5030524;28;20524;-52
2021/12/04 06:24:22;;;;;;;2.50;2.30;;;-0.30;99.90;;;;;;5032211;28;20799;-54
2021/12/04 06:26:50;;;;;;;5.30;4.80;;;-0.30;99.90;;;;;;5032149;28;20477;-53
2021/12/04 06:29:17;;;;;;;6.90;6.27;;;-0.40;99.90;;;;;;5031524;28;20962;-54
2021/12/04 06:31:45;;;;;;;3.80;3.50;;;-0.40;99.90;;;;;;5031322;28;20510;-53
2021/12/04 06:34:12;;;;;;;9.30;5.00;;;-0.40;99.90;;;;;;5031145;28;20473;-54
2021/12/04 06:36:39;;;;;;;9.83;5.73;;;-0.40;99.90;;;;;;5030988;28;20456;-54
2021/12/04 06:39:06;;;;;;;7.53;6.23;;;-0.30;99.90;;;;;;5031683;28;20505;-54
2021/12/04 06:41:33;;;;;;;7.00;5.40;;;-0.30;99.90;;;;;;5032331;28;20458;-54
2021/12/04 06:44:00;;;;;;;6.43;5.03;;;-0.30;99.90;;;;;;5031344;28;20987;-54
2021/12/04 06:46:28;;;;;;;4.70;3.50;;;-0.30;99.90;;;;;;5090816;22;20546;-76
2021/12/04 06:49:05;;;;;;;6.67;4.70;;;-0.30;99.90;;;;;;5069879;28;20460;-76
2021/12/04 06:51:34;;;;;;;12.47;5.07;;;-0.20;99.90;;;;;;5069091;28;20946;-77
2021/12/04 06:54:05;;;;;;;4.10;3.60;;;-0.20;99.90;;;;;;5086505;28;20484;-77
2021/12/04 06:56:34;;;;;;;2.90;2.70;;;-0.20;99.90;;;;;;5091473;28;20442;-77
2021/12/04 06:59:05;;;;;;;3.20;2.80;;;-0.30;99.90;;;;;;5088446;28;20511;-76
2021/12/04 07:01:33;;;;;;;3.73;3.03;;;-0.50;99.90;;;;;;5090288;28;20545;-77
2021/12/04 07:04:01;;;;;;;3.37;2.83;;;-0.40;99.90;;;;;;5089759;28;20457;-76
2021/12/04 07:06:28;;;;;;;3.10;2.40;;;-0.30;99.90;;;;;;5090994;28;20449;-77
2021/12/04 07:08:56;;;;;;;2.67;2.47;;;-0.20;99.90;;;;;;5090193;28;20483;-76
2021/12/04 07:11:23;;;;;;;3.77;3.47;;;-0.20;99.90;;;;;;5089650;28;20449;-77
2021/12/04 07:13:51;;;;;;;4.47;4.07;;;-0.20;99.90;;;;;;5087511;28;20489;-77
2021/12/04 07:16:19;;;;;;;4.37;3.97;;;-0.10;99.90;;;;;;5091706;28;20504;-77
2021/12/04 07:18:46;;;;;;;4.20;3.37;;;-0.10;99.90;;;;;;5088595;28;20573;-77
2021/12/04 07:21:15;;;;;;;6.13;4.20;;;0.00;99.90;;;;;;5089860;28;20478;-77
2021/12/04 07:23:42;;;;;;;9.73;7.30;;;0.00;99.90;;;;;;5090359;28;20456;-77
2021/12/04 07:26:09;;;;;;;6.80;5.73;;;0.00;99.90;;;;;;5090759;28;20484;-77
2021/12/04 07:28:37;;;;;;;7.07;6.07;;;0.00;99.90;;;;;;5085560;28;20447;-77
2021/12/04 07:31:05;;;;;;;6.70;5.60;;;-0.40;99.90;;;;;;5089909;28;20483;-77
2021/12/04 07:33:32;;;;;;;4.50;4.10;;;-0.30;99.90;;;;;;5090116;28;20503;-77
2021/12/04 07:36:00;;;;;;;3.77;3.47;;;-0.40;99.90;;;;;;5092755;28;20453;-76
2021/12/04 07:38:29;;;;;;;5.27;3.00;;;-0.60;99.90;;;;;;5089876;28;20581;-77
2021/12/04 07:40:57;;;;;;;3.70;3.40;;;-0.40;99.90;;;;;;5081668;28;20532;-77
2021/12/04 07:43:24;;;;;;;4.60;2.90;;;-0.30;99.90;;;;;;5095068;28;20467;-77
2021/12/04 07:45:51;;;;;;;5.53;4.10;;;-0.20;99.90;;;;;;5088256;28;20441;-77
2021/12/04 07:48:18;;;;;;;7.17;4.77;;;-0.20;99.90;;;;;;5097055;28;20473;-77
2021/12/04 07:50:45;;;;;;;4.50;4.10;;;-0.10;99.90;;;;;;5094822;28;20479;-77
2021/12/04 07:53:13;;;;;;;6.57;5.97;;;0.00;99.90;;;;;;5093625;28;20468;-77
2021/12/04 07:55:41;;;;;;;6.10;5.47;;;0.00;99.90;;;;;;5098783;28;20473;-77
2021/12/04 07:58:08;;;;;;;8.73;6.03;;;0.00;99.90;;;;;;5092345;28;20517;-77
2021/12/04 08:00:35;;;;;;;8.47;7.67;;;0.00;99.90;;;;;;5092725;28;20857;-77
2021/12/04 08:03:02;;;;;;;9.27;8.20;;;0.10;99.90;;;;;;5088267;28;21006;-77
2021/12/04 08:05:29;;;;;;;12.80;6.67;;;0.10;99.90;;;;;;5094349;28;20886;-77
2021/12/04 08:07:57;;;;;;;10.43;6.40;;;0.20;99.90;;;;;;5093565;28;20519;-77
2021/12/04 08:10:24;;;;;;;7.47;6.10;;;0.20;99.90;;;;;;5093689;28;20455;-77
2021/12/04 08:12:52;;;;;;;6.07;5.27;;;0.30;99.90;;;;;;5090366;28;21062;-77
2021/12/04 08:15:20;;;;;;;7.27;6.60;;;0.30;99.90;;;;;;5094186;28;20796;-77
2021/12/04 08:17:47;;;;;;;9.20;6.97;;;0.30;99.90;;;;;;5097555;28;20471;-77
2021/12/04 08:20:16;;;;;;;7.93;7.13;;;0.40;99.90;;;;;;5092898;28;20503;-77
2021/12/04 08:22:44;;;;;;;11.53;7.67;;;0.30;99.90;;;;;;5108947;28;20446;-76
2021/12/04 08:25:13;;;;;;;10.80;7.87;;;0.40;99.90;;;;;;5106501;28;20483;-77
2021/12/04 08:27:40;;;;;;;8.83;7.93;;;0.30;99.90;;;;;;5094697;28;20880;-77
2021/12/04 08:30:12;;;;;;;11.37;7.93;;;0.30;99.90;;;;;;5093758;28;20501;-77
2021/12/04 08:32:40;;;;;;;10.10;8.00;;;0.40;99.90;;;;;;5090008;28;20499;-76
2021/12/04 08:35:09;;;;;;;9.70;8.70;;;0.50;99.90;;;;;;5084716;28;21011;-77
2021/12/04 08:37:36;;;;;;;14.80;12.73;;;0.40;99.90;;;;;;5091673;28;20497;-77
2021/12/04 08:40:09;;;;;;;13.03;10.53;;;0.50;99.90;;;;;;5088222;28;20529;-76
2021/12/04 08:42:36;;;;;;;11.03;9.67;;;0.50;99.90;;;;;;5084094;28;20978;-77
2021/12/04 08:45:04;;;;;;;13.83;11.83;;;0.60;99.90;;;;;;5090538;28;20477;-77
2021/12/04 08:47:34;;;;;;;12.70;10.50;;;0.60;99.90;;;;;;5089490;28;20480;-77
2021/12/04 08:50:01;;;;;;;8.60;7.27;;;0.60;99.90;;;;;;5084082;28;20447;-77
2021/12/04 08:52:28;;;;;;;11.80;8.73;;;0.70;99.90;;;;;;5086710;28;20805;-77
2021/12/04 08:54:55;;;;;;;9.00;8.10;;;0.70;99.90;;;;;;5090640;28;20461;-77
2021/12/04 08:57:22;;;;;;;11.10;7.83;;;0.50;99.90;;;;;;5086620;28;20503;-77
2021/12/04 08:59:49;;;;;;;9.53;7.77;;;0.50;99.90;;;;;;5087808;28;20509;-77
2021/12/04 09:02:19;;;;;;;8.40;7.40;;;0.70;99.90;;;;;;5088653;28;20470;-76
2021/12/04 09:04:47;;;;;;;9.30;8.30;;;0.70;99.90;;;;;;5088813;28;20471;-77
2021/12/04 09:07:15;;;;;;;10.20;9.00;;;0.80;99.90;;;;;;5085536;28;20441;-77
2021/12/04 09:09:42;;;;;;;9.13;6.63;;;0.50;99.90;;;;;;5087796;28;20844;-77
2021/12/04 09:12:11;;;;;;;8.33;6.83;;;0.30;99.90;;;;;;5089647;28;20473;-77
2021/12/04 09:14:40;;;;;;;10.80;8.80;;;0.50;99.90;;;;;;5087549;28;20501;-77
2021/12/04 09:17:10;;;;;;;8.37;7.60;;;0.60;99.90;;;;;;5084880;28;20858;-77
2021/12/04 09:19:37;;;;;;;10.03;8.47;;;0.80;99.90;;;;;;5093700;28;20499;-77
2021/12/04 09:22:11;;;;;;;8.83;7.90;;;0.90;99.90;;;;;;5088797;28;20501;-76
2021/12/04 09:24:40;;;;;;;9.13;8.33;;;0.90;99.90;;;;;;5084497;28;20935;-77
2021/12/04 09:27:13;;;;;;;9.00;8.30;;;1.10;99.90;;;;;;5092616;28;20443;-77
2021/12/04 09:29:50;;;;;;;11.47;8.00;;;1.10;99.90;;;;;;5087843;28;20439;-77
2021/12/04 09:32:46;;;;;;;11.60;8.77;;;1.20;99.90;;;;;;5084040;28;20465;-76
2021/12/04 09:35:32;;;;;;;9.07;8.17;;;1.20;99.90;;;;;;5086586;28;20440;-76
2021/12/04 10:00:20;;;;;;;7.20;6.53;;;1.40;99.90;;;;;;5091950;28;20481;-77
2021/12/04 10:06:12;;;;;;;8.47;5.53;;;1.00;99.90;;;;;;5005053;28;20454;-52
2021/12/04 10:20:31;;;;;;;5.17;4.67;;;1.40;99.90;;;;;;5047873;28;20505;-47
2021/12/04 10:34:16;;;;;;;12.30;7.60;;;0.70;99.90;;;;;;5047656;28;20427;-51
2021/12/04 10:36:43;;;;;;;8.23;6.90;;;0.80;99.90;;;;;;5046782;28;20518;-51
2021/12/04 10:39:12;;;;;;;8.30;5.73;;;1.00;99.90;;;;;;5047554;28;20482;-52
2021/12/04 10:41:42;;;;;;;7.37;4.93;;;1.10;99.90;;;;;;5048974;28;20460;-50
2021/12/04 10:44:15;;;;;;;9.20;7.03;;;1.10;99.90;;;;;;5044279;28;20463;-51
2021/12/04 10:46:54;;;;;;;10.80;7.60;;;1.20;99.90;;;;;;5046239;28;20540;-50
2021/12/04 10:49:42;;;;;;;43.97;18.70;;;1.30;99.90;;;;;;5048254;28;20443;-51
2021/12/04 10:52:24;;;;;;;10.30;8.13;;;1.70;99.90;;;;;;5049892;28;20535;-52
2021/12/04 10:55:10;;;;;;;10.80;7.90;;;1.70;99.90;;;;;;5047248;28;20457;-52
2021/12/04 10:58:05;;;;;;;11.77;9.13;;;1.80;99.90;;;;;;5046893;28;20440;-50
2021/12/04 11:00:44;;;;;;;8.07;7.27;;;2.10;99.90;;;;;;5046340;28;20556;-52
2021/12/04 11:03:32;;;;;;;12.47;8.40;;;2.10;99.90;;;;;;5048544;28;20510;-51
2021/12/04 11:23:26;;;;;;;9.57;7.50;;;2.40;99.90;;;;;;5026097;28;20941;-50
2021/12/04 11:28:58;;;;;;;7.33;6.27;;;2.50;99.90;;;;;;5046132;28;20417;-50
2021/12/04 11:37:09;;;;;;;5.80;4.20;;;2.70;99.90;;;;;;5049011;28;20941;-52
2021/12/04 11:39:52;;;;;;;3.93;3.50;;;2.70;99.90;;;;;;5044531;28;20510;-53
2021/12/04 11:42:26;;;;;;;5.50;4.43;;;2.70;99.90;;;;;;5044885;28;20538;-53
2021/12/04 11:45:08;;;;;;;8.60;5.30;;;2.80;99.90;;;;;;5045672;28;20466;-50
2021/12/04 11:47:39;;;;;;;6.73;5.43;;;2.90;99.90;;;;;;5045484;28;20551;-53
2021/12/04 11:50:27;;;;;;;7.70;5.87;;;2.90;99.90;;;;;;5046317;28;20506;-52
2021/12/04 11:52:58;;;;;;;5.60;4.80;;;2.90;99.90;;;;;;5044031;28;20756;-50
2021/12/04 11:55:27;;;;;;;11.53;7.87;;;2.60;99.90;;;;;;5045345;28;20510;-52
2021/12/04 11:57:55;;;;;;;9.87;5.50;;;2.00;99.90;;;;;;5042438;28;20451;-51
2021/12/04 12:00:27;;;;;;;8.07;6.90;;;1.90;99.90;;;;;;5042853;28;20575;-51
2021/12/04 12:03:07;;;;;;;7.20;6.40;;;2.10;99.90;;;;;;5046470;28;20595;-51
2021/12/04 12:05:43;;;;;;;8.83;6.27;;;2.20;99.90;;;;;;5047080;28;20464;-51
2021/12/04 12:08:22;;;;;;;8.53;5.60;;;2.30;99.90;;;;;;5045845;28;20441;-51
2021/12/04 12:10:52;;;;;;;5.53;4.83;;;2.30;99.90;;;;;;5045749;28;20875;-51
2021/12/04 12:13:25;;;;;;;6.90;6.23;;;2.50;99.90;;;;;;5047497;28;20445;-52
2021/12/04 12:16:00;;;;;;;8.07;7.00;;;2.80;99.90;;;;;;5046779;28;20457;-49
2021/12/04 12:18:28;;;;;;;11.90;8.17;;;2.90;99.90;;;;;;5045097;28;20449;-48
2021/12/04 12:21:08;;;;;;;10.83;7.50;;;3.00;99.90;;;;;;5045016;28;20541;-52
2021/12/04 12:23:40;;;;;;;7.87;7.07;;;2.80;99.90;;;;;;5043701;28;20820;-50
2021/12/04 12:26:14;;;;;;;8.77;6.70;;;2.80;99.90;;;;;;5045770;28;20992;-51
2021/12/04 12:37:17;;;;;;;11.43;8.60;;;3.00;99.90;;;;;;5036330;28;20447;-52
2021/12/04 12:39:59;;;;;;;12.70;7.77;;;3.10;99.90;;;;;;5046588;28;21034;-51
2021/12/04 12:42:28;;;;;;;11.27;6.83;;;3.00;99.90;;;;;;5042788;28;20529;-52
2021/12/04 12:44:55;;;;;;;8.77;6.27;;;2.50;99.90;;;;;;5046479;28;20457;-50
2021/12/04 12:47:22;;;;;;;6.93;6.30;;;2.00;99.90;;;;;;5048074;28;20832;-52
2021/12/04 12:49:50;;;;;;;9.13;6.30;;;2.00;99.90;;;;;;5045679;28;20532;-51
2021/12/04 12:52:22;;;;;;;9.07;6.47;;;2.20;99.90;;;;;;5045152;28;20449;-52
2021/12/04 12:54:55;;;;;;;10.30;6.90;;;2.30;99.90;;;;;;5047320;28;21049;-50
2021/12/04 12:57:25;;;;;;;7.57;6.00;;;2.30;99.90;;;;;;5044896;28;21013;-50
2021/12/04 13:13:55;;;;;;;8.00;6.07;;;3.80;99.90;;;;;;5040418;28;20472;-51
2021/12/04 13:16:29;;;;;;;11.80;7.47;;;3.10;99.90;;;;;;5046240;28;20891;-53
2021/12/04 13:18:59;;;;;;;6.20;4.77;;;4.60;99.90;;;;;;5045176;28;20475;-50
2021/12/04 13:21:27;;;;;;;5.77;4.70;;;4.50;99.90;;;;;;5042477;28;20790;-51
2021/12/04 13:23:58;;;;;;;6.07;4.67;;;4.50;99.90;;;;;;5043806;28;20470;-49
2021/12/04 13:26:30;;;;;;;5.50;4.20;;;4.40;99.90;;;;;;5044976;28;20555;-53
2021/12/04 13:29:00;;;;;;;5.57;5.03;;;4.30;99.90;;;;;;5044498;28;20556;-52
2021/12/04 13:31:27;;;;;;;8.30;5.23;;;4.00;99.90;;;;;;5044740;28;20446;-49
2021/12/04 13:33:55;;;;;;;5.40;4.83;;;3.90;99.90;;;;;;5045099;28;20723;-51
2021/12/04 13:36:23;;;;;;;6.50;4.60;;;3.70;99.90;;;;;;5046476;28;20498;-51
2021/12/04 13:38:56;;;;;;;5.63;4.27;;;3.60;99.90;;;;;;5041765;28;20540;-49
2021/12/04 13:41:23;;;;;;;6.00;4.97;;;3.50;99.90;;;;;;5041899;28;20437;-53
2021/12/04 13:43:52;;;;;;;6.50;5.07;;;3.40;99.90;;;;;;5044698;28;20448;-50
2021/12/04 13:46:19;;;;;;;6.27;5.63;;;3.40;99.90;;;;;;5045514;28;20831;-51
2021/12/04 13:48:46;;;;;;;6.97;5.37;;;3.40;99.90;;;;;;5041059;28;20500;-51
2021/12/04 13:51:14;;;;;;;7.30;6.00;;;3.30;99.90;;;;;;5045161;28;20477;-50
2021/12/04 13:53:43;;;;;;;30.97;13.63;;;3.30;99.90;;;;;;5046678;28;20868;-51
2021/12/04 13:56:14;;;;;;;10.90;7.40;;;4.60;99.90;;;;;;5045079;28;20536;-52
2021/12/04 13:58:46;;;;;;;11.40;8.20;;;5.40;99.90;;;;;;5042877;28;20512;-51
2021/12/04 14:01:14;;;;;;;7.77;6.87;;;5.50;99.90;;;;;;5043669;28;20510;-49
2021/12/04 14:03:41;;;;;;;8.37;5.70;;;5.40;99.90;;;;;;5043604;28;20527;-51
2021/12/04 14:06:11;;;;;;;6.67;5.50;;;5.30;99.90;;;;;;5041848;28;20558;-51
2021/12/04 14:08:38;;;;;;;9.17;6.70;;;4.90;99.90;;;;;;5045307;28;20525;-53
2021/12/04 14:11:05;;;;;;;8.10;6.30;;;3.70;99.90;;;;;;5044379;28;20522;-53
2021/12/04 14:13:34;;;;;;;6.70;5.40;;;3.30;99.90;;;;;;5042481;28;20489;-53
2021/12/04 14:16:01;;;;;;;6.53;5.50;;;3.40;99.90;;;;;;5043028;28;20508;-50
2021/12/04 14:18:30;;;;;;;7.00;6.30;;;3.50;99.90;;;;;;5044021;28;20513;-52
2021/12/04 14:21:00;;;;;;;7.70;6.73;;;3.50;99.90;;;;;;5041792;28;20856;-51
2021/12/04 14:23:28;;;;;;;7.00;6.10;;;3.60;99.90;;;;;;5040610;28;20456;-51
2021/12/04 14:25:56;;;;;;;7.37;5.93;;;3.50;99.90;;;;;;5042183;28;20516;-52
2021/12/04 14:28:25;;;;;;;8.63;6.60;;;3.50;99.90;;;;;;5041670;28;20437;-52
2021/12/04 14:30:54;;;;;;;7.10;6.17;;;3.40;99.90;;;;;;5040283;28;20810;-52
2021/12/04 14:33:22;;;;;;;11.73;8.13;;;3.30;99.90;;;;;;5041729;28;20458;-49
2021/12/04 14:35:51;;;;;;;11.67;8.53;;;3.30;99.90;;;;;;5043383;28;20550;-53
2021/12/04 14:38:20;;;;;;;10.57;9.13;;;3.30;99.90;;;;;;5042152;28;20550;-51
2021/12/04 14:40:51;;;;;;;8.37;6.73;;;2.90;99.90;;;;;;5042056;28;20534;-52
2021/12/04 14:43:21;;;;;;;15.33;9.43;;;2.60;99.90;;;;;;5041600;28;20529;-52
2021/12/04 14:45:51;;;;;;;15.73;10.57;;;2.80;99.90;;;;;;5043524;28;20549;-51
2021/12/04 14:48:23;;;;;;;10.03;7.70;;;2.80;99.90;;;;;;5041633;28;20789;-51
2021/12/04 14:50:52;;;;;;;12.13;7.60;;;2.90;99.90;;;;;;5043146;28;20453;-52
2021/12/04 14:53:22;;;;;;;6.60;6.00;;;2.90;99.90;;;;;;5043656;28;20503;-51
2021/12/04 14:55:51;;;;;;;6.73;5.03;;;2.90;99.90;;;;;;5040420;28;20469;-49
2021/12/04 14:58:20;;;;;;;6.43;4.77;;;2.90;99.90;;;;;;5041323;28;20487;-51
2021/12/04 15:00:50;;;;;;;7.13;6.43;;;2.90;99.90;;;;;;5042579;28;20485;-51
2021/12/04 15:03:21;;;;;;;12.93;10.43;;;2.80;99.90;;;;;;5041685;28;20903;-51
2021/12/04 15:05:55;;;;;;;10.30;8.80;;;2.80;99.90;;;;;;5040335;28;20712;-51
2021/12/04 15:08:28;;;;;;;9.47;5.97;;;2.80;99.90;;;;;;5042814;28;20958;-52
2021/12/04 15:10:58;;;;;;;10.63;6.40;;;2.80;99.90;;;;;;5042679;28;20521;-51
2021/12/04 15:13:29;;;;;;;8.43;6.00;;;2.80;99.90;;;;;;5040460;28;20542;-52
2021/12/04 15:16:00;;;;;;;15.57;12.33;;;2.80;99.90;;;;;;5037065;28;20549;-51
2021/12/04 15:18:33;;;;;;;14.43;11.90;;;2.70;99.90;;;;;;5042638;28;20453;-50
2021/12/04 15:21:03;;;;;;;19.93;10.17;;;2.70;99.90;;;;;;5043384;28;20759;-52
2021/12/04 15:23:31;;;;;;;17.60;13.43;;;2.70;99.90;;;;;;5040453;28;20506;-53
2021/12/04 15:26:01;;;;;;;19.50;14.60;;;2.70;99.90;;;;;;5041217;28;20488;-51
2021/12/04 15:28:30;;;;;;;17.73;12.57;;;2.70;99.90;;;;;;5042891;28;20499;-51